Time;durP1;ratioP1;P1;durP2;ratioP2;P2;SDS_P1;SDS_P2;PMS_P1;PMS_P2;Temp;Humidity;BMP_temperature;BMP_pressure;BME280_temperature;BME280_humidity;BME280_pressure;Samples;Min_cycle;Max_cycle;Signal;HPM_P1;HPM_P2
2021/07/05 00:00:39;;;;;;;8.10;7.80;;;23.70;95.30;;;;;;3525038;40;20468;-65
2021/07/05 00:03:07;;;;;;;8.33;7.90;;;23.70;95.30;;;;;;3525520;40;20482;-65
2021/07/05 00:05:34;;;;;;;7.90;7.70;;;23.70;95.30;;;;;;3525688;40;20550;-65
2021/07/05 00:08:01;;;;;;;8.23;7.93;;;23.70;95.20;;;;;;3526049;40;20474;-66
2021/07/05 00:10:29;;;;;;;8.53;8.17;;;23.70;95.20;;;;;;3525128;40;20549;-65
2021/07/05 00:12:58;;;;;;;8.30;8.00;;;23.70;95.20;;;;;;3527404;40;20549;-65
2021/07/05 00:15:29;;;;;;;8.43;7.90;;;23.70;95.20;;;;;;3528390;40;20479;-66
2021/07/05 00:18:00;;;;;;;8.20;7.90;;;23.70;95.10;;;;;;3528838;40;20447;-65
2021/07/05 00:20:28;;;;;;;8.30;7.80;;;23.70;95.10;;;;;;3528053;40;20459;-65
2021/07/05 00:22:57;;;;;;;7.93;7.73;;;23.70;95.10;;;;;;3528401;40;20813;-65
2021/07/05 00:25:24;;;;;;;7.93;7.63;;;23.70;95.10;;;;;;3528965;40;20475;-65
2021/07/05 00:27:51;;;;;;;8.80;8.50;;;23.70;95.10;;;;;;3528698;40;20771;-65
2021/07/05 00:30:21;;;;;;;8.20;8.00;;;23.70;95.00;;;;;;3528328;40;20549;-65
2021/07/05 00:32:49;;;;;;;8.13;7.80;;;23.70;95.00;;;;;;3528723;40;20463;-65
2021/07/05 00:35:19;;;;;;;8.00;7.70;;;23.70;95.00;;;;;;3528708;40;20554;-65
2021/07/05 00:37:46;;;;;;;8.27;7.90;;;23.60;94.90;;;;;;3519986;40;20821;-65
2021/07/05 00:40:16;;;;;;;8.40;8.00;;;23.60;94.90;;;;;;3528694;40;20546;-65
2021/07/05 00:42:43;;;;;;;8.70;8.40;;;23.60;94.90;;;;;;3511989;40;20464;-65
2021/07/05 00:45:11;;;;;;;8.40;8.20;;;23.60;94.90;;;;;;3528352;40;20466;-65
2021/07/05 00:47:40;;;;;;;8.83;8.53;;;23.60;94.90;;;;;;3528094;40;20471;-65
2021/07/05 00:50:09;;;;;;;8.03;7.83;;;23.60;94.90;;;;;;3528997;40;20526;-65
2021/07/05 00:52:40;;;;;;;8.00;7.80;;;23.60;94.90;;;;;;3528142;40;20467;-65
2021/07/05 00:55:09;;;;;;;8.60;8.20;;;23.60;94.80;;;;;;3528081;40;20550;-64
2021/07/05 00:57:36;;;;;;;7.80;7.60;;;23.60;94.80;;;;;;3528367;40;21198;-65
2021/07/05 01:00:07;;;;;;;8.13;7.83;;;23.60;94.70;;;;;;3528543;40;20510;-65
2021/07/05 01:02:34;;;;;;;9.10;8.70;;;23.60;94.80;;;;;;3528855;40;20550;-66
2021/07/05 01:05:01;;;;;;;9.00;8.40;;;23.60;94.80;;;;;;3528876;40;20487;-65
2021/07/05 01:07:30;;;;;;;8.53;8.23;;;23.60;94.70;;;;;;3528103;40;20451;-65
2021/07/05 01:09:58;;;;;;;8.50;8.20;;;23.60;94.70;;;;;;3528580;40;20474;-65
2021/07/05 01:12:25;;;;;;;9.17;8.67;;;23.60;94.80;;;;;;3529005;40;20459;-65
2021/07/05 01:14:53;;;;;;;8.63;8.23;;;23.60;94.80;;;;;;3528187;40;20486;-65
2021/07/05 01:17:20;;;;;;;8.10;7.90;;;23.60;94.70;;;;;;3535260;40;20459;-65
2021/07/05 01:19:49;;;;;;;8.63;8.13;;;23.60;94.70;;;;;;3529012;40;20732;-65
2021/07/05 01:22:19;;;;;;;8.30;8.00;;;23.60;94.70;;;;;;3527890;40;20540;-65
2021/07/05 01:24:48;;;;;;;8.73;8.33;;;23.60;94.80;;;;;;3526043;40;20456;-66
2021/07/05 01:27:17;;;;;;;8.50;8.20;;;23.60;94.80;;;;;;3526167;40;20471;-66
2021/07/05 01:29:45;;;;;;;8.67;8.37;;;23.60;94.70;;;;;;3526882;40;20559;-65
2021/07/05 01:32:13;;;;;;;8.37;8.07;;;23.60;94.80;;;;;;3526396;40;20466;-65
2021/07/05 01:34:40;;;;;;;8.17;7.87;;;23.60;94.70;;;;;;3525879;40;20547;-65
2021/07/05 01:37:08;;;;;;;8.30;8.00;;;23.60;94.70;;;;;;3527136;40;20467;-65
2021/07/05 01:39:37;;;;;;;9.00;8.70;;;23.60;94.70;;;;;;3527186;40;20460;-65
2021/07/05 01:42:05;;;;;;;8.63;8.33;;;23.50;94.70;;;;;;3517681;40;20953;-65
2021/07/05 01:44:33;;;;;;;8.40;8.10;;;23.60;94.80;;;;;;3526353;40;20455;-65
2021/07/05 01:47:01;;;;;;;8.67;8.37;;;23.50;94.70;;;;;;3526316;40;20538;-65
2021/07/05 01:49:28;;;;;;;8.43;8.13;;;23.50;94.70;;;;;;3526545;40;20467;-65
2021/07/05 01:51:55;;;;;;;8.30;8.10;;;23.50;94.70;;;;;;3525992;40;20902;-65
2021/07/05 01:54:23;;;;;;;8.30;8.10;;;23.50;94.60;;;;;;3526631;40;20464;-65
2021/07/05 01:56:51;;;;;;;8.57;8.20;;;23.50;94.60;;;;;;3526585;40;20503;-65
2021/07/05 01:59:18;;;;;;;8.10;7.83;;;23.50;94.60;;;;;;3526204;40;20460;-65
2021/07/05 02:01:45;;;;;;;8.70;8.30;;;23.50;94.60;;;;;;3526131;40;20460;-65
2021/07/05 02:04:12;;;;;;;8.80;8.50;;;23.50;94.60;;;;;;3525960;40;20471;-65
2021/07/05 02:06:39;;;;;;;8.57;8.17;;;23.50;94.60;;;;;;3533054;40;20479;-65
2021/07/05 02:09:08;;;;;;;8.67;8.37;;;23.50;94.60;;;;;;3526353;40;20778;-65
2021/07/05 02:11:36;;;;;;;8.53;8.20;;;23.50;94.60;;;;;;3516847;40;20456;-65
2021/07/05 02:14:05;;;;;;;8.40;8.00;;;23.50;94.60;;;;;;3526937;40;20863;-65
2021/07/05 02:16:33;;;;;;;8.00;7.70;;;23.50;94.60;;;;;;3526749;40;20474;-65
2021/07/05 02:19:00;;;;;;;8.20;7.90;;;23.50;94.50;;;;;;3527228;40;20687;-65
2021/07/05 02:21:27;;;;;;;8.67;8.37;;;23.50;94.60;;;;;;3526441;40;21000;-65
2021/07/05 02:23:54;;;;;;;10.07;9.57;;;23.50;94.50;;;;;;3525503;40;20460;-65
2021/07/05 02:26:22;;;;;;;8.40;8.00;;;23.50;94.50;;;;;;3533497;40;20517;-65
2021/07/05 02:28:49;;;;;;;8.63;8.23;;;23.50;94.50;;;;;;3533182;40;20459;-65
2021/07/05 02:31:17;;;;;;;8.53;8.23;;;23.50;94.50;;;;;;3526227;40;20459;-65
2021/07/05 02:33:44;;;;;;;8.70;8.30;;;23.50;94.50;;;;;;3525932;40;21015;-65
2021/07/05 02:36:12;;;;;;;8.47;8.17;;;23.50;94.50;;;;;;3526471;40;20585;-65
2021/07/05 02:38:39;;;;;;;9.10;8.60;;;23.40;94.40;;;;;;3533031;40;20472;-65
2021/07/05 02:41:07;;;;;;;8.90;8.60;;;23.40;94.40;;;;;;3526303;40;20448;-65
2021/07/05 02:43:34;;;;;;;9.73;8.80;;;23.40;94.50;;;;;;3526388;40;20680;-65
2021/07/05 02:46:03;;;;;;;8.70;8.40;;;23.40;94.50;;;;;;3525172;40;21234;-65
2021/07/05 02:48:32;;;;;;;8.90;8.60;;;23.40;94.40;;;;;;3525379;40;20482;-65
2021/07/05 02:51:03;;;;;;;9.17;8.57;;;23.50;94.50;;;;;;3525716;40;20712;-65
2021/07/05 02:53:30;;;;;;;8.53;8.23;;;23.40;94.40;;;;;;3526650;40;20861;-65
2021/07/05 02:55:57;;;;;;;8.63;8.33;;;23.40;94.50;;;;;;3525971;40;20456;-65
2021/07/05 02:58:24;;;;;;;9.20;8.90;;;23.50;94.40;;;;;;3532172;40;20476;-65
2021/07/05 03:00:54;;;;;;;8.13;7.83;;;23.50;94.40;;;;;;3525863;40;20471;-65
2021/07/05 03:03:22;;;;;;;8.43;8.13;;;23.50;94.40;;;;;;3524987;40;20546;-65
2021/07/05 03:05:50;;;;;;;9.77;8.97;;;23.40;94.30;;;;;;3525842;40;20479;-65
2021/07/05 03:08:18;;;;;;;9.53;8.90;;;23.40;94.20;;;;;;3525700;40;20455;-65
2021/07/05 03:10:46;;;;;;;8.93;8.63;;;23.40;94.20;;;;;;3525648;40;20459;-65
2021/07/05 03:13:15;;;;;;;9.80;9.50;;;23.40;94.20;;;;;;3524976;40;20460;-65
2021/07/05 03:15:44;;;;;;;9.80;9.40;;;23.40;94.20;;;;;;3532711;40;20527;-65
2021/07/05 03:18:12;;;;;;;10.20;9.60;;;23.40;94.20;;;;;;3525629;40;20463;-65
2021/07/05 03:20:41;;;;;;;9.00;8.70;;;23.40;94.20;;;;;;3525593;40;20467;-65
2021/07/05 03:23:14;;;;;;;10.67;9.90;;;23.40;94.20;;;;;;3525819;40;20455;-65
2021/07/05 03:25:41;;;;;;;10.50;10.03;;;23.40;94.20;;;;;;3525406;40;20468;-65
2021/07/05 03:28:11;;;;;;;10.20;9.60;;;23.40;94.20;;;;;;3525440;40;20471;-65
2021/07/05 03:30:41;;;;;;;10.53;9.93;;;23.40;94.20;;;;;;3523742;40;20894;-65
2021/07/05 03:33:08;;;;;;;10.30;9.80;;;23.40;94.20;;;;;;3525166;40;20842;-65
2021/07/05 03:35:37;;;;;;;10.53;10.13;;;23.40;94.20;;;;;;3525467;40;20464;-65
2021/07/05 03:38:05;;;;;;;9.97;9.63;;;23.40;94.20;;;;;;3524921;40;20511;-65
2021/07/05 03:40:36;;;;;;;10.20;9.90;;;23.40;94.20;;;;;;3525031;40;20468;-65
2021/07/05 03:43:04;;;;;;;10.63;10.03;;;23.40;94.20;;;;;;3525337;40;20550;-64
2021/07/05 03:45:33;;;;;;;10.30;9.90;;;23.40;94.20;;;;;;3524324;40;20571;-64
2021/07/05 03:48:01;;;;;;;11.23;10.83;;;23.40;94.10;;;;;;3524809;40;20550;-65
2021/07/05 03:50:29;;;;;;;11.33;10.90;;;23.40;94.20;;;;;;3525501;40;20554;-65
2021/07/05 03:52:57;;;;;;;12.03;11.63;;;23.40;94.20;;;;;;3524513;40;20455;-64
2021/07/05 03:55:25;;;;;;;11.23;10.73;;;23.40;94.10;;;;;;3524156;40;20779;-65
2021/07/05 03:57:54;;;;;;;11.10;10.60;;;23.40;94.20;;;;;;3523741;40;20487;-65
2021/07/05 04:00:23;;;;;;;10.60;10.17;;;23.30;94.10;;;;;;3523684;40;20479;-65
2021/07/05 04:02:50;;;;;;;10.20;9.80;;;23.40;94.10;;;;;;3524205;40;20960;-65
2021/07/05 04:05:18;;;;;;;10.77;10.37;;;23.40;94.10;;;;;;3531143;40;20467;-65
2021/07/05 04:07:46;;;;;;;10.90;10.50;;;23.30;94.10;;;;;;3523085;40;20463;-65
2021/07/05 04:10:14;;;;;;;11.57;10.70;;;23.30;94.10;;;;;;3525226;40;20468;-65
2021/07/05 04:12:42;;;;;;;11.73;11.23;;;23.30;94.10;;;;;;3523983;40;20499;-65
2021/07/05 04:15:11;;;;;;;11.37;10.63;;;23.30;94.10;;;;;;3523774;40;21313;-65
2021/07/05 04:17:38;;;;;;;10.53;10.20;;;23.30;94.10;;;;;;3524823;40;20713;-65
2021/07/05 04:20:10;;;;;;;10.83;10.40;;;23.30;94.40;;;;;;3525469;40;20558;-65
2021/07/05 04:22:37;;;;;;;10.93;10.33;;;23.30;94.00;;;;;;3523656;40;20777;-65
2021/07/05 04:25:06;;;;;;;10.83;10.23;;;23.30;94.00;;;;;;3523352;40;21030;-65
2021/07/05 04:27:33;;;;;;;10.77;10.37;;;23.40;94.10;;;;;;3522799;40;20464;-65
2021/07/05 04:30:00;;;;;;;11.40;10.93;;;23.30;94.00;;;;;;3522397;40;20518;-65
2021/07/05 04:32:28;;;;;;;11.87;11.27;;;23.30;94.00;;;;;;3522475;40;21170;-65
2021/07/05 04:34:56;;;;;;;10.93;10.40;;;23.30;94.00;;;;;;3522445;40;20468;-65
2021/07/05 04:37:24;;;;;;;11.20;10.40;;;23.30;94.00;;;;;;3521632;40;20490;-65
2021/07/05 04:39:51;;;;;;;10.37;9.97;;;23.30;94.10;;;;;;3522060;40;20495;-65
2021/07/05 04:42:18;;;;;;;10.77;10.27;;;23.30;94.00;;;;;;3521387;40;20465;-65
2021/07/05 04:44:46;;;;;;;11.13;10.43;;;23.30;94.10;;;;;;3521259;40;20475;-65
2021/07/05 04:47:13;;;;;;;10.43;10.00;;;23.30;94.10;;;;;;3520237;40;21065;-65
2021/07/05 04:49:42;;;;;;;12.33;11.20;;;23.30;94.10;;;;;;3521059;40;20490;-65
2021/07/05 04:52:09;;;;;;;11.20;10.70;;;23.30;94.10;;;;;;3519867;40;20960;-65
2021/07/05 04:54:37;;;;;;;10.70;10.40;;;23.30;94.10;;;;;;3519322;40;20456;-65
2021/07/05 04:57:04;;;;;;;10.70;10.20;;;23.30;94.10;;;;;;3518047;40;20683;-65
2021/07/05 04:59:32;;;;;;;10.80;10.30;;;23.30;94.10;;;;;;3521146;40;20455;-65
2021/07/05 05:01:59;;;;;;;10.90;10.30;;;23.30;94.10;;;;;;3520855;40;20791;-65
2021/07/05 05:04:26;;;;;;;11.93;11.10;;;23.30;94.10;;;;;;3520027;40;20482;-65
2021/07/05 05:06:55;;;;;;;11.10;10.60;;;23.30;94.10;;;;;;3520863;40;20474;-65
2021/07/05 05:09:23;;;;;;;10.70;10.30;;;23.30;94.10;;;;;;3521120;40;21124;-65
2021/07/05 05:11:50;;;;;;;11.33;10.63;;;23.30;94.10;;;;;;3521167;40;20452;-65
2021/07/05 05:14:18;;;;;;;11.20;10.67;;;23.30;94.20;;;;;;3521227;40;20506;-65
2021/07/05 05:16:45;;;;;;;11.30;10.80;;;23.30;94.20;;;;;;3519724;40;20474;-65
2021/07/05 05:19:12;;;;;;;10.90;10.50;;;23.40;94.30;;;;;;3519233;40;20471;-64
2021/07/05 05:21:39;;;;;;;11.73;11.07;;;23.30;94.30;;;;;;3518500;40;21126;-65
2021/07/05 05:24:08;;;;;;;11.27;10.77;;;23.30;94.20;;;;;;3517549;40;20494;-65
2021/07/05 05:26:35;;;;;;;11.90;11.30;;;23.40;94.30;;;;;;3509579;40;21042;-65
2021/07/05 05:29:02;;;;;;;11.07;10.57;;;23.40;94.30;;;;;;3518146;40;20522;-59
2021/07/05 05:31:31;;;;;;;11.30;10.47;;;23.40;94.40;;;;;;3516624;40;20631;-60
2021/07/05 05:33:58;;;;;;;11.30;10.60;;;23.40;94.40;;;;;;3515397;40;20736;-60
2021/07/05 05:36:25;;;;;;;10.83;10.40;;;23.40;94.40;;;;;;3518646;40;20460;-60
2021/07/05 05:38:52;;;;;;;11.13;10.63;;;23.40;94.50;;;;;;3518259;40;20543;-60
2021/07/05 05:41:21;;;;;;;11.20;10.67;;;23.40;94.50;;;;;;3516449;40;20459;-60
2021/07/05 05:43:48;;;;;;;11.00;10.33;;;23.40;94.50;;;;;;3516403;40;20478;-59
2021/07/05 05:46:16;;;;;;;11.80;11.03;;;23.40;94.50;;;;;;3516150;40;20468;-59
2021/07/05 05:48:43;;;;;;;11.03;10.53;;;23.40;94.60;;;;;;3514912;40;20483;-60
2021/07/05 05:51:11;;;;;;;11.17;10.67;;;23.40;94.70;;;;;;3516569;40;20996;-60
2021/07/05 05:53:39;;;;;;;12.10;11.30;;;23.40;94.70;;;;;;3511616;40;20483;-61
2021/07/05 05:56:06;;;;;;;11.47;10.77;;;23.50;94.90;;;;;;3512349;40;20578;-60
2021/07/05 05:58:37;;;;;;;11.60;10.67;;;23.50;94.90;;;;;;3514934;40;20486;-61
2021/07/05 06:01:05;;;;;;;12.30;11.40;;;23.50;95.00;;;;;;3510533;40;20525;-61
2021/07/05 06:03:33;;;;;;;10.80;10.20;;;23.50;95.00;;;;;;3506239;40;20796;-60
2021/07/05 06:06:00;;;;;;;11.10;10.30;;;23.50;95.00;;;;;;3510465;40;20495;-59
2021/07/05 06:08:28;;;;;;;12.00;11.30;;;23.50;95.10;;;;;;3505654;40;20550;-60
2021/07/05 06:10:54;;;;;;;11.33;10.63;;;23.50;95.10;;;;;;3506884;40;21457;-64
2021/07/05 06:13:22;;;;;;;12.20;11.40;;;23.50;95.20;;;;;;3507778;40;20491;-64
2021/07/05 06:15:50;;;;;;;11.97;11.27;;;23.50;95.20;;;;;;3507892;40;20538;-65
2021/07/05 06:18:17;;;;;;;12.40;11.70;;;23.50;95.20;;;;;;3503806;40;20796;-64
2021/07/05 06:20:46;;;;;;;11.77;11.27;;;23.50;95.30;;;;;;3506803;40;20948;-65
2021/07/05 06:23:20;;;;;;;11.80;11.10;;;23.50;95.30;;;;;;3505560;40;20705;-65
2021/07/05 06:25:48;;;;;;;12.20;11.47;;;23.50;95.30;;;;;;3502398;40;21166;-65
2021/07/05 06:28:16;;;;;;;11.30;10.57;;;23.50;95.30;;;;;;3506764;40;20527;-65
2021/07/05 06:30:43;;;;;;;11.57;11.07;;;23.50;95.30;;;;;;3506444;40;20521;-65
2021/07/05 06:33:13;;;;;;;11.00;10.60;;;23.50;95.30;;;;;;3505183;40;20464;-65
2021/07/05 06:35:40;;;;;;;11.50;10.90;;;23.50;95.30;;;;;;3500522;40;20753;-65
2021/07/05 06:38:07;;;;;;;11.67;11.07;;;23.60;95.40;;;;;;3505721;40;20463;-65
2021/07/05 06:40:34;;;;;;;11.27;10.73;;;23.50;95.30;;;;;;3503889;40;20705;-65
2021/07/05 06:43:01;;;;;;;11.67;11.07;;;23.50;95.40;;;;;;3505985;40;20475;-65
2021/07/05 06:45:31;;;;;;;11.90;11.37;;;23.50;95.40;;;;;;3505574;40;20799;-66
2021/07/05 06:47:58;;;;;;;11.87;11.37;;;23.60;95.40;;;;;;3503902;40;20979;-65
2021/07/05 06:50:27;;;;;;;11.90;10.97;;;23.60;95.50;;;;;;3507761;40;20484;-65
2021/07/05 06:52:55;;;;;;;11.17;10.70;;;23.60;95.40;;;;;;3506811;40;20628;-65
2021/07/05 06:55:22;;;;;;;11.50;11.00;;;23.60;95.50;;;;;;3506996;40;20555;-65
2021/07/05 06:57:49;;;;;;;11.83;11.00;;;23.60;95.50;;;;;;3508677;40;21147;-65
2021/07/05 07:00:18;;;;;;;10.40;9.90;;;23.60;95.60;;;;;;3508928;40;20712;-65
2021/07/05 07:02:47;;;;;;;10.90;10.30;;;23.60;95.60;;;;;;3508636;40;20459;-65
2021/07/05 07:05:16;;;;;;;10.90;10.30;;;23.60;95.70;;;;;;3509793;40;20543;-65
2021/07/05 07:07:45;;;;;;;12.60;11.73;;;23.60;95.80;;;;;;3501849;40;21034;-65
2021/07/05 07:10:13;;;;;;;10.93;10.27;;;23.60;95.90;;;;;;3502580;40;20769;-65
2021/07/05 07:12:45;;;;;;;12.17;11.27;;;23.60;95.90;;;;;;3506623;40;20553;-65
2021/07/05 07:15:13;;;;;;;11.23;10.80;;;23.60;95.90;;;;;;3503015;40;21369;-65
2021/07/05 07:17:44;;;;;;;11.93;11.23;;;23.60;95.90;;;;;;3500758;40;20478;-65
2021/07/05 07:20:13;;;;;;;12.00;11.33;;;23.60;96.00;;;;;;3507945;40;21151;-65
2021/07/05 07:22:40;;;;;;;12.30;11.33;;;23.60;96.00;;;;;;3493799;40;20459;-65
2021/07/05 07:25:11;;;;;;;12.30;11.60;;;23.70;96.10;;;;;;3502580;40;20804;-65
2021/07/05 07:27:38;;;;;;;12.70;11.00;;;23.70;96.20;;;;;;3507398;40;20475;-65
2021/07/05 07:30:08;;;;;;;18.47;13.37;;;23.70;96.00;;;;;;3507168;40;20718;-65
2021/07/05 07:32:36;;;;;;;24.80;13.10;;;23.70;95.90;;;;;;3502039;40;20621;-65
2021/07/05 07:35:03;;;;;;;16.93;12.17;;;23.70;96.00;;;;;;3503039;40;21279;-65
2021/07/05 07:37:31;;;;;;;17.87;11.53;;;23.70;96.10;;;;;;3506302;40;20478;-65
2021/07/05 07:40:00;;;;;;;12.63;11.53;;;23.70;96.10;;;;;;3504069;40;20472;-65
2021/07/05 07:42:28;;;;;;;11.80;10.57;;;23.70;96.00;;;;;;3503160;40;20788;-64
2021/07/05 07:44:55;;;;;;;11.97;11.10;;;23.70;96.00;;;;;;3506573;40;20468;-65
2021/07/05 07:47:22;;;;;;;11.60;10.73;;;23.70;95.90;;;;;;3505178;40;20815;-64
2021/07/05 07:49:50;;;;;;;11.60;10.80;;;23.70;95.90;;;;;;3504601;40;20487;-64
2021/07/05 07:52:17;;;;;;;11.90;10.80;;;23.70;95.80;;;;;;3500676;40;20818;-64
2021/07/05 07:54:44;;;;;;;12.50;11.40;;;23.70;95.70;;;;;;3503908;40;20455;-65
2021/07/05 07:57:16;;;;;;;13.13;11.90;;;23.70;95.70;;;;;;3503438;40;20689;-64
2021/07/05 07:59:45;;;;;;;11.50;10.80;;;23.70;95.60;;;;;;3502634;40;20567;-64
2021/07/05 08:02:12;;;;;;;12.47;11.13;;;23.80;95.80;;;;;;3500664;40;20459;-64
2021/07/05 08:04:40;;;;;;;11.20;10.70;;;23.80;95.80;;;;;;3504367;40;20676;-64
2021/07/05 08:07:08;;;;;;;10.50;10.10;;;23.80;95.90;;;;;;3506799;40;20562;-64
2021/07/05 08:09:36;;;;;;;10.93;10.07;;;23.80;95.90;;;;;;3504300;40;20867;-64
2021/07/05 08:12:05;;;;;;;11.00;10.60;;;23.80;95.90;;;;;;3505133;40;20566;-64
2021/07/05 08:14:32;;;;;;;10.60;10.20;;;23.80;96.10;;;;;;3503199;40;20492;-64
2021/07/05 08:17:00;;;;;;;11.10;10.40;;;23.80;96.10;;;;;;3499384;40;20561;-64
2021/07/05 08:19:27;;;;;;;10.43;10.03;;;23.80;95.90;;;;;;3505950;40;20479;-64
2021/07/05 08:21:54;;;;;;;10.87;10.37;;;23.80;95.90;;;;;;3505004;40;21026;-64
2021/07/05 08:24:21;;;;;;;11.23;10.73;;;23.80;95.90;;;;;;3501200;40;20455;-65
2021/07/05 08:26:48;;;;;;;10.90;10.33;;;23.80;96.00;;;;;;3504459;40;21289;-65
2021/07/05 08:29:16;;;;;;;11.27;10.77;;;23.80;95.90;;;;;;3502349;40;20844;-65
2021/07/05 08:31:43;;;;;;;10.80;10.10;;;23.80;96.10;;;;;;3496848;40;20592;-64
2021/07/05 08:34:14;;;;;;;10.73;10.30;;;23.80;96.20;;;;;;3501173;40;20702;-65
2021/07/05 08:36:41;;;;;;;10.13;9.83;;;23.80;96.20;;;;;;3503532;40;20824;-65
2021/07/05 08:39:09;;;;;;;10.67;10.27;;;23.80;96.30;;;;;;3502397;40;20736;-64
2021/07/05 08:41:38;;;;;;;10.97;10.57;;;23.80;96.30;;;;;;3493974;40;20581;-63
2021/07/05 08:44:07;;;;;;;11.30;10.70;;;23.80;96.10;;;;;;3503066;40;20917;-63
2021/07/05 08:46:36;;;;;;;11.13;10.63;;;23.80;96.20;;;;;;3493951;40;20619;-64
2021/07/05 08:49:04;;;;;;;10.93;10.43;;;23.80;96.10;;;;;;3501026;40;20724;-65
2021/07/05 08:51:32;;;;;;;11.10;10.50;;;23.80;96.30;;;;;;3488222;40;20847;-65
2021/07/05 08:54:00;;;;;;;11.00;10.10;;;23.80;96.30;;;;;;3499877;40;21153;-65
2021/07/05 08:56:27;;;;;;;10.20;9.70;;;23.80;96.30;;;;;;3504952;40;20452;-63
2021/07/05 08:58:55;;;;;;;10.20;9.83;;;23.80;96.10;;;;;;3506622;40;20492;-59
2021/07/05 09:01:24;;;;;;;10.30;9.90;;;23.80;96.10;;;;;;3503245;40;20486;-65
2021/07/05 09:03:54;;;;;;;10.40;9.90;;;23.80;96.20;;;;;;3496169;40;20483;-65
2021/07/05 09:06:22;;;;;;;10.60;10.20;;;23.80;96.20;;;;;;3504492;40;20788;-65
2021/07/05 09:09:13;;;;;;;11.20;10.80;;;23.80;96.30;;;;;;3504833;40;20823;-65
2021/07/05 09:11:44;;;;;;;11.23;10.83;;;23.80;96.30;;;;;;3494511;40;20487;-64
2021/07/05 09:14:14;;;;;;;11.37;10.67;;;23.80;96.30;;;;;;3502072;40;20462;-59
2021/07/05 09:16:42;;;;;;;9.73;9.30;;;23.80;96.30;;;;;;3503804;40;20483;-57
2021/07/05 09:19:18;;;;;;;10.13;9.60;;;23.80;96.10;;;;;;3503965;40;20499;-60
2021/07/05 09:21:50;;;;;;;9.77;9.37;;;23.80;96.20;;;;;;3503666;40;20506;-60
2021/07/05 09:24:31;;;;;;;9.83;9.23;;;23.80;96.40;;;;;;3501029;40;20479;-60
2021/07/05 09:27:04;;;;;;;9.20;8.70;;;23.80;96.40;;;;;;3489776;40;20489;-55
2021/07/05 09:29:32;;;;;;;8.60;8.30;;;23.80;96.90;;;;;;3506641;40;20470;-60
2021/07/05 09:32:01;;;;;;;9.17;8.50;;;23.80;98.00;;;;;;3497053;40;20475;-60
2021/07/05 09:34:31;;;;;;;8.97;8.57;;;23.80;99.10;;;;;;3506405;40;20487;-60
2021/07/05 09:37:14;;;;;;;8.63;8.23;;;23.80;99.60;;;;;;3502747;40;20862;-60
2021/07/05 09:39:42;;;;;;;7.90;7.60;;;23.80;99.20;;;;;;3506756;40;21056;-60
2021/07/05 09:42:13;;;;;;;9.07;8.67;;;23.80;98.70;;;;;;3506631;40;20521;-60
2021/07/05 09:44:46;;;;;;;8.77;7.97;;;23.80;98.70;;;;;;3507858;40;20497;-59
2021/07/05 09:47:18;;;;;;;8.40;8.00;;;23.80;98.40;;;;;;3504577;40;20494;-59
2021/07/05 09:49:47;;;;;;;8.90;8.60;;;23.80;98.30;;;;;;3499103;40;20482;-59
2021/07/05 09:52:24;;;;;;;9.00;8.60;;;23.80;98.10;;;;;;3506681;40;20889;-59
2021/07/05 09:54:55;;;;;;;8.53;8.20;;;23.80;97.90;;;;;;3508665;40;20467;-60
2021/07/05 09:57:30;;;;;;;9.10;8.60;;;23.80;98.20;;;;;;3507822;40;20551;-55
2021/07/05 10:00:11;;;;;;;9.03;8.33;;;23.80;97.80;;;;;;3507538;40;21007;-60
2021/07/05 10:03:01;;;;;;;8.70;8.10;;;23.80;97.80;;;;;;3508645;40;20563;-57
2021/07/05 10:05:32;;;;;;;8.20;7.80;;;23.80;97.70;;;;;;3499864;40;20481;-56
2021/07/05 10:08:02;;;;;;;8.73;8.33;;;23.80;97.60;;;;;;3495896;40;20522;-58
2021/07/05 10:10:31;;;;;;;8.80;8.40;;;23.80;97.60;;;;;;3507438;40;20708;-56
2021/07/05 10:13:00;;;;;;;9.07;8.67;;;23.80;97.60;;;;;;3506555;40;20491;-56
2021/07/05 10:15:29;;;;;;;8.73;8.43;;;23.80;97.50;;;;;;3503524;40;20498;-58
2021/07/05 10:17:56;;;;;;;8.20;8.00;;;23.80;97.50;;;;;;3507050;40;20483;-57
2021/07/05 10:20:26;;;;;;;8.93;8.43;;;23.80;97.40;;;;;;3508392;40;20517;-57
2021/07/05 10:22:55;;;;;;;8.70;8.40;;;23.80;97.40;;;;;;3508016;40;20472;-57
2021/07/05 10:25:25;;;;;;;8.80;8.40;;;23.80;97.30;;;;;;3506301;40;20490;-58
2021/07/05 10:27:53;;;;;;;8.87;8.50;;;23.80;97.30;;;;;;3507314;40;20474;-57
2021/07/05 10:30:22;;;;;;;8.60;8.27;;;23.80;97.30;;;;;;3506654;40;20479;-60
2021/07/05 10:32:50;;;;;;;8.83;8.53;;;23.80;97.20;;;;;;3505687;40;20472;-61
2021/07/05 10:35:21;;;;;;;9.30;8.80;;;23.80;97.20;;;;;;3507633;40;20494;-60
2021/07/05 10:37:54;;;;;;;8.67;8.37;;;23.80;97.10;;;;;;3505496;40;20566;-61
2021/07/05 10:40:25;;;;;;;8.53;8.30;;;23.80;97.10;;;;;;3506300;40;20496;-57
2021/07/05 10:42:58;;;;;;;9.10;8.60;;;23.80;97.10;;;;;;3506645;40;20961;-57
2021/07/05 10:45:40;;;;;;;9.10;8.60;;;23.80;97.00;;;;;;3506667;40;20491;-57
2021/07/05 10:48:11;;;;;;;8.83;8.53;;;23.80;97.00;;;;;;3486262;40;20538;-57
2021/07/05 10:50:52;;;;;;;9.00;8.60;;;23.80;97.00;;;;;;3506581;40;20470;-56
2021/07/05 10:53:40;;;;;;;8.77;8.40;;;23.80;97.10;;;;;;3507101;40;20463;-56
2021/07/05 10:56:33;;;;;;;8.90;8.50;;;23.80;97.00;;;;;;3507767;40;20468;-57
2021/07/05 10:59:37;;;;;;;8.77;8.47;;;23.80;97.00;;;;;;3495665;40;21337;-56
2021/07/05 11:02:37;;;;;;;8.77;8.47;;;23.80;97.00;;;;;;3502281;40;20475;-57
2021/07/05 11:05:26;;;;;;;9.23;8.83;;;23.80;97.00;;;;;;3507069;40;21102;-56
2021/07/05 11:07:55;;;;;;;9.33;9.03;;;23.80;96.90;;;;;;3508863;40;20498;-57
2021/07/05 11:10:28;;;;;;;9.90;9.60;;;23.80;96.90;;;;;;3506802;40;20480;-57
2021/07/05 11:13:04;;;;;;;9.20;8.90;;;23.80;96.90;;;;;;3507866;40;20534;-57
2021/07/05 11:16:00;;;;;;;8.80;8.50;;;23.80;97.30;;;;;;3507358;40;20452;-56
2021/07/05 11:19:07;;;;;;;9.20;8.90;;;23.80;97.00;;;;;;3488875;40;20578;-57
2021/07/05 11:21:56;;;;;;;9.70;9.20;;;23.80;97.00;;;;;;3510591;40;20890;-56
2021/07/05 11:24:36;;;;;;;9.20;8.90;;;23.80;96.90;;;;;;3508164;40;20486;-56
2021/07/05 11:27:32;;;;;;;9.60;9.30;;;23.80;96.90;;;;;;3508964;40;20487;-56
2021/07/05 11:30:34;;;;;;;9.63;9.33;;;23.80;96.90;;;;;;3506322;40;20480;-56
2021/07/05 11:33:25;;;;;;;10.03;9.63;;;23.80;96.90;;;;;;3507478;40;20883;-57
2021/07/05 11:36:01;;;;;;;9.50;9.20;;;23.80;96.90;;;;;;3499977;40;20579;-58
2021/07/05 11:38:34;;;;;;;10.00;9.70;;;23.80;96.90;;;;;;3510096;40;20593;-56
2021/07/05 11:41:06;;;;;;;10.23;9.83;;;23.80;96.90;;;;;;3510490;40;21297;-57
2021/07/05 11:43:55;;;;;;;10.20;9.70;;;23.80;96.90;;;;;;3510497;40;20487;-57
2021/07/05 11:46:51;;;;;;;9.50;9.10;;;23.80;97.00;;;;;;3508836;40;20467;-57
2021/07/05 11:49:25;;;;;;;10.40;9.90;;;23.80;97.10;;;;;;3508613;40;20535;-57
2021/07/05 11:51:56;;;;;;;10.37;9.87;;;23.80;97.10;;;;;;3509733;40;20456;-57
2021/07/05 11:54:26;;;;;;;9.40;9.10;;;23.80;97.00;;;;;;3509149;40;20456;-56
2021/07/05 11:56:55;;;;;;;10.10;9.70;;;23.80;97.00;;;;;;3506677;40;20480;-62
2021/07/05 11:59:25;;;;;;;9.60;9.30;;;23.80;97.10;;;;;;3508258;40;20468;-59
2021/07/05 12:01:59;;;;;;;9.30;8.90;;;23.80;97.10;;;;;;3508253;40;20527;-60
2021/07/05 12:04:30;;;;;;;9.40;9.10;;;23.80;97.10;;;;;;3507287;40;20495;-60
2021/07/05 12:06:58;;;;;;;9.57;9.27;;;23.80;97.00;;;;;;3505137;40;20774;-60
2021/07/05 12:09:30;;;;;;;9.10;8.80;;;23.80;97.00;;;;;;3506234;40;20539;-60
2021/07/05 12:11:58;;;;;;;9.63;9.33;;;23.80;96.90;;;;;;3494324;40;20863;-59
2021/07/05 12:14:27;;;;;;;9.37;8.97;;;23.80;97.00;;;;;;3494595;40;20843;-61
2021/07/05 12:16:56;;;;;;;9.87;9.47;;;23.80;96.90;;;;;;3507697;40;20491;-60
2021/07/05 12:19:24;;;;;;;9.27;8.77;;;23.80;97.00;;;;;;3507241;40;20524;-59
2021/07/05 12:21:55;;;;;;;9.30;9.00;;;23.80;96.90;;;;;;3506998;40;20455;-60
2021/07/05 12:24:27;;;;;;;9.33;9.03;;;23.80;97.00;;;;;;3509977;40;20736;-60
2021/07/05 12:26:57;;;;;;;9.23;8.93;;;23.80;97.00;;;;;;3509016;40;20578;-59
2021/07/05 12:29:28;;;;;;;8.97;8.67;;;23.80;97.00;;;;;;3501366;40;20495;-58
2021/07/05 12:32:12;;;;;;;9.00;8.70;;;23.80;97.00;;;;;;3509427;40;20460;-60
2021/07/05 12:34:46;;;;;;;9.50;9.10;;;23.80;97.00;;;;;;3507193;40;20464;-59
2021/07/05 12:37:26;;;;;;;8.63;8.33;;;23.80;97.00;;;;;;3506867;40;20481;-60
2021/07/05 12:39:57;;;;;;;9.03;8.73;;;23.80;97.00;;;;;;3497398;40;20486;-60
2021/07/05 12:42:40;;;;;;;8.20;7.90;;;23.80;97.00;;;;;;3506423;40;20472;-59
2021/07/05 12:45:16;;;;;;;8.87;8.47;;;23.80;97.00;;;;;;3508134;40;20464;-60
2021/07/05 12:48:05;;;;;;;8.67;8.37;;;23.80;97.00;;;;;;3502248;40;20479;-61
2021/07/05 12:50:36;;;;;;;8.37;8.00;;;23.80;97.10;;;;;;3507744;40;20472;-61
2021/07/05 12:53:17;;;;;;;8.60;8.20;;;23.80;97.10;;;;;;3509262;40;20475;-62